Time;durP1;ratioP1;P1;durP2;ratioP2;P2;SDS_P1;SDS_P2;PMS_P1;PMS_P2;Temp;Humidity;BMP_temperature;BMP_pressure;BME280_temperature;BME280_humidity;BME280_pressure;Samples;Min_cycle;Max_cycle;Signal;HPM_P1;HPM_P2
2021/05/04 00:03:13;;;;;;;7.07;2.87;;;;;;;;;;12932887;22;20218;-73
2021/05/04 00:08:14;;;;;;;4.77;3.00;;;;;;;;;;12966941;22;20186;-73
2021/05/04 00:13:15;;;;;;;7.17;3.13;;;;;;;;;;12947561;22;20193;-74
2021/05/04 00:18:17;;;;;;;4.17;3.03;;;;;;;;;;12941823;22;20205;-74
2021/05/04 00:23:19;;;;;;;5.83;3.23;;;;;;;;;;12947453;22;20206;-74
2021/05/04 00:28:21;;;;;;;5.63;3.00;;;;;;;;;;12965143;22;20177;-74
2021/05/04 00:33:31;;;;;;;5.37;3.20;;;;;;;;;;12963576;22;20261;-74
2021/05/04 00:38:32;;;;;;;8.33;3.23;;;;;;;;;;12944413;22;20194;-73
2021/05/04 00:43:33;;;;;;;7.70;2.70;;;;;;;;;;12967141;22;20186;-73
2021/05/04 00:48:35;;;;;;;5.10;3.00;;;;;;;;;;12962509;22;20192;-73
2021/05/04 00:53:37;;;;;;;6.97;3.30;;;;;;;;;;12943164;22;20174;-73
2021/05/04 00:58:39;;;;;;;4.30;3.10;;;;;;;;;;12942045;22;20241;-74
2021/05/04 01:03:42;;;;;;;6.63;3.17;;;;;;;;;;12940043;22;20210;-73
2021/05/04 01:08:44;;;;;;;6.40;2.80;;;;;;;;;;12942537;22;20616;-73
2021/05/04 01:13:46;;;;;;;6.30;3.40;;;;;;;;;;12943444;22;20174;-74
2021/05/04 01:18:49;;;;;;;12.23;3.40;;;;;;;;;;12940791;22;20210;-74
2021/05/04 01:23:52;;;;;;;4.53;2.80;;;;;;;;;;12945601;22;20684;-74
2021/05/04 01:28:54;;;;;;;6.13;2.70;;;;;;;;;;12941500;22;20197;-73
2021/05/04 01:33:55;;;;;;;4.93;2.80;;;;;;;;;;12941893;22;20519;-73
2021/05/04 01:38:58;;;;;;;9.87;2.80;;;;;;;;;;12944022;22;20217;-73
2021/05/04 01:44:00;;;;;;;4.13;2.43;;;;;;;;;;12949604;22;20699;-73
2021/05/04 01:49:02;;;;;;;4.57;2.57;;;;;;;;;;12969160;22;20178;-73
2021/05/04 01:54:05;;;;;;;4.63;2.43;;;;;;;;;;12952655;22;20163;-73
2021/05/04 01:59:07;;;;;;;6.93;2.60;;;;;;;;;;12970119;22;20277;-73
2021/05/04 02:04:09;;;;;;;4.40;2.37;;;;;;;;;;12949322;22;20208;-74
2021/05/04 02:09:13;;;;;;;6.63;2.33;;;;;;;;;;12949761;22;20245;-73
2021/05/04 02:14:15;;;;;;;9.30;2.30;;;;;;;;;;12971373;22;20186;-73
2021/05/04 02:19:16;;;;;;;3.03;2.10;;;;;;;;;;12948897;22;20532;-73
2021/05/04 02:24:20;;;;;;;3.40;2.00;;;;;;;;;;12953653;22;20185;-73
2021/05/04 02:29:22;;;;;;;6.53;2.30;;;;;;;;;;12949684;22;20258;-73
2021/05/04 02:34:25;;;;;;;4.33;2.10;;;;;;;;;;12971124;22;20175;-73
2021/05/04 02:39:28;;;;;;;3.73;2.07;;;;;;;;;;12947916;22;20693;-73
2021/05/04 02:44:31;;;;;;;3.47;2.00;;;;;;;;;;12970210;22;20188;-74
2021/05/04 02:49:33;;;;;;;3.03;2.10;;;;;;;;;;12971656;22;20561;-73
2021/05/04 02:54:36;;;;;;;4.43;1.80;;;;;;;;;;12948223;22;20375;-73
2021/05/04 02:59:38;;;;;;;5.53;1.90;;;;;;;;;;12969788;22;20210;-74
2021/05/04 03:04:40;;;;;;;5.30;2.13;;;;;;;;;;12949069;22;20801;-73
2021/05/04 03:09:43;;;;;;;2.87;1.70;;;;;;;;;;12970894;22;20179;-75
2021/05/04 03:14:44;;;;;;;6.20;2.10;;;;;;;;;;12945593;22;20852;-75
2021/05/04 03:19:46;;;;;;;3.57;1.70;;;;;;;;;;12950114;22;20224;-74
2021/05/04 03:24:49;;;;;;;6.03;1.93;;;;;;;;;;12964771;22;20277;-78
2021/05/04 03:29:51;;;;;;;3.50;1.90;;;;;;;;;;12972565;22;20512;-79
2021/05/04 03:34:52;;;;;;;4.63;1.70;;;;;;;;;;12973967;22;20182;-79
2021/05/04 03:39:55;;;;;;;2.10;1.70;;;;;;;;;;12951608;22;20224;-78
2021/05/04 03:44:57;;;;;;;2.73;1.77;;;;;;;;;;12949064;22;20177;-78
2021/05/04 03:49:59;;;;;;;3.77;1.80;;;;;;;;;;12975352;22;20515;-78
2021/05/04 03:55:03;;;;;;;3.37;1.60;;;;;;;;;;12973048;22;20700;-78
2021/05/04 04:00:06;;;;;;;2.57;1.63;;;;;;;;;;12951224;22;20206;-78
2021/05/04 04:05:09;;;;;;;2.30;1.70;;;;;;;;;;12952261;22;20221;-79
2021/05/04 04:10:12;;;;;;;4.20;1.60;;;;;;;;;;12956176;22;20826;-78
2021/05/04 04:15:14;;;;;;;4.00;1.60;;;;;;;;;;12949858;22;20504;-77
2021/05/04 04:20:16;;;;;;;2.03;1.40;;;;;;;;;;12978388;22;20289;-78
2021/05/04 04:25:19;;;;;;;2.53;1.80;;;;;;;;;;12954688;22;20186;-77
2021/05/04 04:30:23;;;;;;;2.07;1.60;;;;;;;;;;12954406;22;20179;-79
2021/05/04 04:35:25;;;;;;;4.60;1.60;;;;;;;;;;12952006;22;20182;-78
2021/05/04 04:40:28;;;;;;;4.83;1.67;;;;;;;;;;12953717;22;20206;-79
2021/05/04 04:45:30;;;;;;;2.97;1.57;;;;;;;;;;12948530;22;20664;-79
2021/05/04 04:50:32;;;;;;;4.10;1.50;;;;;;;;;;12951762;22;20257;-79
2021/05/04 04:55:34;;;;;;;3.47;1.50;;;;;;;;;;12950789;22;20174;-79
2021/05/04 05:00:36;;;;;;;3.23;1.50;;;;;;;;;;12950872;22;20208;-79
2021/05/04 05:05:38;;;;;;;4.90;1.90;;;;;;;;;;12971653;22;20209;-78
2021/05/04 05:10:41;;;;;;;3.00;1.57;;;;;;;;;;12951575;22;20687;-76
2021/05/04 05:15:43;;;;;;;4.17;1.63;;;;;;;;;;12949662;22;20175;-77
2021/05/04 05:20:44;;;;;;;6.33;2.00;;;;;;;;;;12977401;22;20261;-78
2021/05/04 05:25:48;;;;;;;7.60;2.17;;;;;;;;;;12955099;22;20178;-75
2021/05/04 05:30:52;;;;;;;5.97;2.07;;;;;;;;;;12952345;22;20666;-82
2021/05/04 05:35:54;;;;;;;6.47;2.20;;;;;;;;;;12956278;22;20178;-76
2021/05/04 05:41:04;;;;;;;7.23;2.07;;;;;;;;;;12973397;22;20190;-77
2021/05/04 05:46:05;;;;;;;7.20;2.20;;;;;;;;;;12940104;22;20236;-78
2021/05/04 05:51:07;;;;;;;7.67;2.43;;;;;;;;;;12970494;22;20228;-76
2021/05/04 05:56:10;;;;;;;7.17;2.27;;;;;;;;;;12947501;22;20229;-77
2021/05/04 06:01:12;;;;;;;11.43;2.40;;;;;;;;;;12965324;22;20209;-78
2021/05/04 06:06:14;;;;;;;11.87;2.33;;;;;;;;;;12967345;22;20301;-79
2021/05/04 06:11:16;;;;;;;9.07;2.50;;;;;;;;;;12965124;22;20182;-80
2021/05/04 06:16:18;;;;;;;9.03;2.63;;;;;;;;;;12943798;22;20214;-80
2021/05/04 06:21:21;;;;;;;10.40;2.40;;;;;;;;;;12969037;22;20178;-80
2021/05/04 06:26:24;;;;;;;12.77;2.37;;;;;;;;;;12948569;22;20182;-75
2021/05/04 06:31:26;;;;;;;12.37;3.23;;;;;;;;;;12944375;22;20913;-77
2021/05/04 06:36:29;;;;;;;14.20;3.23;;;;;;;;;;12968278;22;20729;-78
2021/05/04 06:41:35;;;;;;;10.83;2.90;;;;;;;;;;12943744;22;20171;-79
2021/05/04 06:46:37;;;;;;;14.07;3.00;;;;;;;;;;12965923;22;20646;-79
2021/05/04 06:51:39;;;;;;;16.67;3.50;;;;;;;;;;12946143;22;20179;-79
2021/05/04 06:56:41;;;;;;;14.67;3.33;;;;;;;;;;12949821;22;20202;-78
2021/05/04 07:01:43;;;;;;;12.00;3.40;;;;;;;;;;12943334;22;20195;-78
2021/05/04 07:06:45;;;;;;;14.67;3.53;;;;;;;;;;12968872;22;20584;-79
2021/05/04 07:11:48;;;;;;;16.13;3.50;;;;;;;;;;12964238;22;20237;-78
2021/05/04 07:16:50;;;;;;;14.73;3.53;;;;;;;;;;12945798;22;20524;-78
2021/05/04 07:21:52;;;;;;;15.33;3.63;;;;;;;;;;12945983;22;20504;-79
2021/05/04 07:26:54;;;;;;;17.97;3.80;;;;;;;;;;12970483;22;20182;-78
2021/05/04 07:31:56;;;;;;;14.63;4.03;;;;;;;;;;12943280;22;20174;-79
2021/05/04 07:36:58;;;;;;;13.73;3.40;;;;;;;;;;12965771;22;20210;-78
2021/05/04 07:42:01;;;;;;;12.80;3.40;;;;;;;;;;12966718;22;20710;-79
2021/05/04 07:47:03;;;;;;;21.73;5.37;;;;;;;;;;12944337;22;20196;-78
2021/05/04 07:52:05;;;;;;;20.30;5.80;;;;;;;;;;12964929;22;20241;-79
2021/05/04 07:57:08;;;;;;;18.33;4.17;;;;;;;;;;12970202;22;20212;-79
2021/05/04 08:02:09;;;;;;;14.47;3.57;;;;;;;;;;12944979;22;20532;-79
2021/05/04 08:07:12;;;;;;;18.43;3.70;;;;;;;;;;12969045;22;20186;-79
2021/05/04 08:12:15;;;;;;;12.67;3.77;;;;;;;;;;12969316;22;20883;-79
2021/05/04 08:17:19;;;;;;;13.23;3.20;;;;;;;;;;12967074;22;20229;-78
2021/05/04 08:22:21;;;;;;;10.53;3.17;;;;;;;;;;12968675;22;20181;-79
2021/05/04 08:27:24;;;;;;;13.30;3.20;;;;;;;;;;12966701;22;20190;-79
2021/05/04 08:32:26;;;;;;;9.30;2.93;;;;;;;;;;12966934;22;20179;-79
2021/05/04 08:37:28;;;;;;;11.10;2.93;;;;;;;;;;12968653;22;20201;-80
2021/05/04 08:42:30;;;;;;;11.90;3.50;;;;;;;;;;12948956;22;20262;-78
2021/05/04 08:47:33;;;;;;;8.70;3.00;;;;;;;;;;12946077;22;20181;-79
2021/05/04 08:52:35;;;;;;;8.97;2.60;;;;;;;;;;12950029;22;20186;-79
2021/05/04 08:57:38;;;;;;;9.67;2.40;;;;;;;;;;12948251;22;20670;-79
2021/05/04 09:02:56;;;;;;;10.60;2.50;;;;;;;;;;12970394;22;20918;-80
2021/05/04 09:07:57;;;;;;;9.47;2.70;;;;;;;;;;12970573;22;20170;-79
2021/05/04 09:13:01;;;;;;;11.87;2.67;;;;;;;;;;12965683;22;20184;-80
2021/05/04 09:18:18;;;;;;;9.57;2.40;;;;;;;;;;12965800;22;20206;-78
2021/05/04 09:23:27;;;;;;;14.13;2.70;;;;;;;;;;12946388;22;20178;-79
2021/05/04 09:28:29;;;;;;;9.00;2.60;;;;;;;;;;12967415;22;20182;-80
2021/05/04 09:33:37;;;;;;;36.83;3.37;;;;;;;;;;12944326;22;20198;-78
2021/05/04 09:38:43;;;;;;;15.77;3.40;;;;;;;;;;12965795;22;20612;-78
2021/05/04 09:43:46;;;;;;;17.80;2.83;;;;;;;;;;12966508;22;20222;-80
2021/05/04 09:48:48;;;;;;;14.53;2.47;;;;;;;;;;12944189;22;20171;-79
2021/05/04 09:53:58;;;;;;;10.40;2.10;;;;;;;;;;12972209;22;20189;-80
2021/05/04 09:59:02;;;;;;;10.97;2.30;;;;;;;;;;12947786;22;20195;-80
2021/05/04 10:04:04;;;;;;;7.17;2.10;;;;;;;;;;12972100;22;20205;-80
2021/05/04 10:09:07;;;;;;;6.03;1.80;;;;;;;;;;12975613;22;20190;-80
2021/05/04 10:14:12;;;;;;;6.67;2.00;;;;;;;;;;12970865;22;20638;-79
2021/05/04 10:19:15;;;;;;;8.13;1.70;;;;;;;;;;12945668;22;20703;-77
2021/05/04 10:24:18;;;;;;;4.97;1.70;;;;;;;;;;12950918;22;20526;-79
2021/05/04 10:29:23;;;;;;;8.87;1.70;;;;;;;;;;12974731;22;20646;-79
2021/05/04 10:34:25;;;;;;;4.73;1.70;;;;;;;;;;12972491;22;20259;-78
2021/05/04 10:39:34;;;;;;;4.23;1.40;;;;;;;;;;12953833;22;20207;-79
2021/05/04 10:45:05;;;;;;;4.67;1.70;;;;;;;;;;12948555;22;20182;-79
2021/05/04 10:50:08;;;;;;;6.43;1.67;;;;;;;;;;12955051;22;20166;-79
2021/05/04 10:55:10;;;;;;;5.23;1.87;;;;;;;;;;12971396;22;20178;-79
2021/05/04 11:00:33;;;;;;;99.40;4.67;;;;;;;;;;12949927;22;20730;-79
2021/05/04 11:05:47;;;;;;;19.17;2.30;;;;;;;;;;12971735;22;20410;-79
2021/05/04 11:11:04;;;;;;;10.43;1.70;;;;;;;;;;12973528;22;20181;-78
2021/05/04 11:16:20;;;;;;;7.13;1.60;;;;;;;;;;12947515;22;20713;-79
2021/05/04 11:21:37;;;;;;;1000.50;50.57;;;;;;;;;;12974044;22;20216;-78
2021/05/04 11:26:52;;;;;;;181.33;10.67;;;;;;;;;;12943485;22;20186;-79
2021/05/04 11:31:54;;;;;;;33.00;3.03;;;;;;;;;;12971146;22;20552;-79
2021/05/04 11:36:56;;;;;;;22.40;2.57;;;;;;;;;;12950647;22;20711;-78
2021/05/04 11:42:00;;;;;;;9.43;1.57;;;;;;;;;;12950785;22;20178;-79
2021/05/04 11:47:17;;;;;;;8.13;1.90;;;;;;;;;;12920518;22;20841;-79
2021/05/04 11:52:23;;;;;;;6.93;1.77;;;;;;;;;;12946490;22;20202;-80
2021/05/04 11:57:29;;;;;;;9.47;2.03;;;;;;;;;;12950740;22;20230;-79
2021/05/04 12:02:34;;;;;;;8.10;1.80;;;;;;;;;;12970062;22;20715;-79
2021/05/04 12:07:42;;;;;;;4.67;1.53;;;;;;;;;;12949831;22;20663;-79
2021/05/04 12:12:46;;;;;;;8.50;1.80;;;;;;;;;;12950984;22;20635;-78
2021/05/04 12:17:57;;;;;;;3.23;1.37;;;;;;;;;;12967576;22;20293;-79
2021/05/04 12:23:02;;;;;;;6.70;1.70;;;;;;;;;;12971057;22;20181;-79
2021/05/04 12:28:07;;;;;;;5.17;1.47;;;;;;;;;;12969023;22;20671;-79
2021/05/04 12:33:08;;;;;;;7.07;1.70;;;;;;;;;;12970001;22;20182;-79
2021/05/04 12:38:14;;;;;;;4.47;1.60;;;;;;;;;;12969811;22;20198;-79
2021/05/04 12:43:19;;;;;;;2.60;1.30;;;;;;;;;;12971111;22;20189;-80
2021/05/04 12:48:24;;;;;;;3.40;1.40;;;;;;;;;;12947485;22;20255;-79
2021/05/04 12:53:31;;;;;;;5.20;1.60;;;;;;;;;;12972463;22;20307;-79
2021/05/04 12:58:34;;;;;;;6.57;1.97;;;;;;;;;;12947910;22;20200;-80
2021/05/04 13:03:50;;;;;;;6.73;1.80;;;;;;;;;;12946573;22;20206;-80
2021/05/04 13:08:55;;;;;;;10.80;1.90;;;;;;;;;;12950644;22;20181;-79
2021/05/04 13:14:07;;;;;;;3.37;1.50;;;;;;;;;;12971768;22;20197;-79
2021/05/04 13:30:06;;;;;;;6.80;1.70;;;;;;;;;;12966506;22;20193;-80
2021/05/04 13:35:12;;;;;;;4.73;1.57;;;;;;;;;;12973254;22;20604;-80
2021/05/04 13:50:55;;;;;;;4.30;1.50;;;;;;;;;;12956821;22;20535;-79
2021/05/04 13:55:57;;;;;;;4.33;1.70;;;;;;;;;;12977727;22;20236;-79
2021/05/04 14:01:01;;;;;;;4.37;1.50;;;;;;;;;;12974506;22;20206;-81
2021/05/04 14:27:20;;;;;;;4.23;1.50;;;;;;;;;;12953263;22;20552;-81
2021/05/04 14:32:23;;;;;;;6.60;1.93;;;;;;;;;;12969857;22;20175;-79
2021/05/04 14:37:28;;;;;;;5.83;1.80;;;;;;;;;;12973394;22;20750;-79
2021/05/04 14:58:40;;;;;;;7.60;1.93;;;;;;;;;;12972839;22;20293;-79
2021/05/04 15:03:43;;;;;;;4.77;1.60;;;;;;;;;;12968472;22;20282;-79
2021/05/04 15:08:45;;;;;;;5.03;1.70;;;;;;;;;;12973904;22;20647;-78
2021/05/04 15:13:49;;;;;;;5.40;1.70;;;;;;;;;;12949940;22;20179;-80
2021/05/04 15:24:12;;;;;;;4.37;1.70;;;;;;;;;;12962828;22;20182;-79
2021/05/04 15:29:14;;;;;;;5.97;1.73;;;;;;;;;;12972011;22;20175;-79
2021/05/04 15:34:17;;;;;;;4.03;1.70;;;;;;;;;;12948733;22;20247;-79
2021/05/04 15:39:19;;;;;;;7.23;1.80;;;;;;;;;;12973522;22;20754;-78
2021/05/04 15:44:22;;;;;;;5.37;1.90;;;;;;;;;;12971426;22;20651;-79
2021/05/04 15:49:34;;;;;;;6.83;1.87;;;;;;;;;;12966984;22;20174;-80
2021/05/04 16:10:50;;;;;;;4.60;1.70;;;;;;;;;;12969450;22;20533;-77
2021/05/04 16:15:52;;;;;;;4.67;1.67;;;;;;;;;;12945524;22;20488;-79
2021/05/04 16:26:40;;;;;;;5.47;1.70;;;;;;;;;;12973292;22;20186;-86
2021/05/04 16:31:42;;;;;;;5.70;1.67;;;;;;;;;;12966531;22;20547;-82
2021/05/04 16:36:45;;;;;;;6.20;2.23;;;;;;;;;;12949755;22;20217;-79
2021/05/04 16:41:47;;;;;;;27.15;12.23;;;;;;;;;;12965181;22;20421;-84
2021/05/04 16:46:56;;;;;;;36.10;19.33;;;;;;;;;;12967295;22;20516;-82
2021/05/04 16:52:02;;;;;;;26.53;11.80;;;;;;;;;;12969923;22;20961;-83
2021/05/04 16:57:04;;;;;;;17.83;8.10;;;;;;;;;;12966345;22;20595;-83
2021/05/04 17:02:07;;;;;;;14.33;6.27;;;;;;;;;;12940409;22;20502;-84
2021/05/04 17:07:16;;;;;;;8.20;4.13;;;;;;;;;;12966864;22;20698;-84
2021/05/04 17:12:19;;;;;;;3.97;1.80;;;;;;;;;;12968981;22;20178;-83
2021/05/04 17:17:22;;;;;;;3.47;1.90;;;;;;;;;;12969882;22;20174;-81
2021/05/04 17:22:26;;;;;;;4.70;1.80;;;;;;;;;;12968674;22;20458;-84
2021/05/04 17:27:29;;;;;;;3.17;1.60;;;;;;;;;;12971388;22;20182;-82
2021/05/04 17:32:31;;;;;;;6.97;2.27;;;;;;;;;;12944613;22;20180;-82
2021/05/04 17:37:36;;;;;;;4.43;1.40;;;;;;;;;;12971505;22;20269;-82
2021/05/04 17:42:40;;;;;;;4.97;1.63;;;;;;;;;;12969185;22;20564;-82
2021/05/04 17:47:43;;;;;;;3.93;1.50;;;;;;;;;;12969894;22;20780;-82
2021/05/04 17:52:46;;;;;;;3.03;1.53;;;;;;;;;;12948434;22;20277;-83
2021/05/04 17:57:49;;;;;;;2.20;1.50;;;;;;;;;;12950295;22;20209;-83
2021/05/04 18:02:52;;;;;;;4.60;1.60;;;;;;;;;;12945974;22;20340;-83
2021/05/04 18:07:59;;;;;;;3.60;1.70;;;;;;;;;;12971563;22;20213;-84
2021/05/04 18:23:39;;;;;;;2.73;1.57;;;;;;;;;;12966855;22;20186;-83
2021/05/04 18:28:44;;;;;;;2.17;1.30;;;;;;;;;;12907698;23;20202;-83
2021/05/04 18:33:46;;;;;;;3.50;1.37;;;;;;;;;;12904439;23;20203;-83
2021/05/04 18:55:07;;;;;;;3.30;1.10;;;;;;;;;;12909054;23;20749;-84
2021/05/04 19:06:06;;;;;;;3.10;1.30;;;;;;;;;;12905500;23;20199;-83
2021/05/04 19:11:58;;;;;;;2.37;1.00;;;;;;;;;;12908109;23;20379;-84
2021/05/04 19:27:59;;;;;;;3.13;1.30;;;;;;;;;;13015605;22;20582;-78
2021/05/04 20:10:37;;;;;;;2.70;1.40;;;;;;;;;;13013604;22;20224;-81
2021/05/04 20:15:41;;;;;;;6.20;1.50;;;;;;;;;;13033462;22;20307;-76
2021/05/04 20:20:45;;;;;;;2.17;1.20;;;;;;;;;;13014895;22;20669;-83
2021/05/04 20:25:49;;;;;;;3.27;1.10;;;;;;;;;;13032893;22;20265;-82
2021/05/04 20:30:53;;;;;;;2.40;1.30;;;;;;;;;;13028606;22;20196;-83
2021/05/04 20:35:56;;;;;;;4.90;1.37;;;;;;;;;;13032968;22;20248;-83
2021/05/04 20:41:03;;;;;;;2.60;1.30;;;;;;;;;;13033178;22;20251;-84
2021/05/04 20:46:06;;;;;;;5.00;1.83;;;;;;;;;;13030901;22;20227;-83
2021/05/04 20:51:09;;;;;;;3.73;1.20;;;;;;;;;;13033084;22;20173;-83
2021/05/04 20:56:12;;;;;;;5.50;1.30;;;;;;;;;;13033750;22;20639;-84
2021/05/04 21:01:16;;;;;;;3.37;1.50;;;;;;;;;;13007820;22;20205;-85
2021/05/04 21:06:17;;;;;;;3.93;1.40;;;;;;;;;;13010757;22;20549;-84
2021/05/04 21:11:29;;;;;;;4.27;1.20;;;;;;;;;;13032350;22;20277;-84
2021/05/04 21:16:32;;;;;;;4.10;1.33;;;;;;;;;;13031471;22;20180;-84
2021/05/04 21:21:38;;;;;;;3.97;1.30;;;;;;;;;;13010511;22;20572;-83
2021/05/04 21:26:54;;;;;;;4.17;1.97;;;;;;;;;;13031112;22;20189;-83
2021/05/04 21:31:57;;;;;;;5.40;1.50;;;;;;;;;;13009641;22;20172;-76
2021/05/04 21:37:01;;;;;;;5.40;1.60;;;;;;;;;;13031085;22;20261;-77
2021/05/04 21:42:04;;;;;;;4.23;1.70;;;;;;;;;;13032312;22;20301;-77
2021/05/04 21:47:09;;;;;;;6.23;1.70;;;;;;;;;;13030520;22;20669;-77
2021/05/04 21:52:12;;;;;;;6.80;2.00;;;;;;;;;;13033433;22;20180;-77
2021/05/04 21:57:13;;;;;;;6.97;1.83;;;;;;;;;;13035261;22;20203;-77
2021/05/04 22:02:19;;;;;;;7.17;1.80;;;;;;;;;;13033233;22;20201;-76
2021/05/04 22:07:21;;;;;;;8.67;2.10;;;;;;;;;;13017129;22;20180;-78
2021/05/04 22:12:27;;;;;;;9.40;2.10;;;;;;;;;;13014118;22;20170;-77
2021/05/04 22:17:53;;;;;;;6.83;2.13;;;;;;;;;;13032182;22;20177;-76
2021/05/04 22:38:58;;;;;;;6.53;1.60;;;;;;;;;;13034936;22;20209;-77
2021/05/04 22:44:14;;;;;;;7.87;1.77;;;;;;;;;;13033147;22;20170;-77
2021/05/04 22:49:50;;;;;;;5.23;1.70;;;;;;;;;;13009507;22;20885;-77
2021/05/04 23:00:57;;;;;;;7.30;2.00;;;;;;;;;;13031336;22;20213;-75
2021/05/04 23:16:42;;;;;;;4.93;1.80;;;;;;;;;;13021750;22;20173;-76
2021/05/04 23:21:47;;;;;;;6.57;1.83;;;;;;;;;;13034886;22;20470;-77
2021/05/04 23:26:49;;;;;;;7.40;1.97;;;;;;;;;;13013016;22;20674;-76
2021/05/04 23:31:54;;;;;;;4.97;1.67;;;;;;;;;;13032078;22;20173;-78
2021/05/04 23:36:59;;;;;;;10.27;2.47;;;;;;;;;;13035865;22;20203;-77
2021/05/04 23:42:03;;;;;;;8.80;2.10;;;;;;;;;;13033071;22;20533;-77
2021/05/04 23:47:06;;;;;;;9.40;2.40;;;;;;;;;;13034652;22;20177;-77
2021/05/04 23:52:09;;;;;;;9.20;2.10;;;;;;;;;;13013391;22;20208;-77
2021/05/04 23:57:12;;;;;;;8.83;2.27;;;;;;;;;;13014446;22;20200;-76
